Time;durP1;ratioP1;P1;durP2;ratioP2;P2;SDS_P1;SDS_P2;PMS_P1;PMS_P2;Temp;Humidity;BMP_temperature;BMP_pressure;BME280_temperature;BME280_humidity;BME280_pressure;Samples;Min_cycle;Max_cycle;Signal;HPM_P1;HPM_P2
2022/12/31 00:01:18;;;;;;;1.37;0.50;;;12.60;99.90;;;;;;5057795;28;20179;-79
2022/12/31 00:03:44;;;;;;;2.90;0.50;;;12.60;99.90;;;;;;5057682;28;20179;-79
2022/12/31 00:06:26;;;;;;;1.03;0.40;;;12.80;99.90;;;;;;5039969;28;20179;-79
2022/12/31 00:08:55;;;;;;;0.40;0.40;;;12.70;99.90;;;;;;5040056;28;20196;-79
2022/12/31 00:11:22;;;;;;;0.67;0.40;;;12.70;99.90;;;;;;5057308;28;20254;-79
2022/12/31 00:13:48;;;;;;;0.53;0.40;;;12.90;99.90;;;;;;5057391;28;20218;-79
2022/12/31 00:16:18;;;;;;;0.40;0.40;;;12.90;99.90;;;;;;5039749;28;20325;-79
2022/12/31 00:18:48;;;;;;;1.33;0.40;;;12.90;99.90;;;;;;5039701;28;20237;-79
2022/12/31 00:21:15;;;;;;;0.20;0.20;;;12.90;99.90;;;;;;5057414;28;20183;-79
2022/12/31 00:23:41;;;;;;;0.50;0.40;;;12.90;99.90;;;;;;5057422;28;20200;-79
2022/12/31 00:26:16;;;;;;;1.17;0.33;;;12.90;99.90;;;;;;5057081;28;20175;-80
2022/12/31 00:28:42;;;;;;;1.33;0.43;;;12.90;99.90;;;;;;5057561;28;20170;-79
2022/12/31 00:31:14;;;;;;;0.20;0.20;;;12.90;99.90;;;;;;5057199;28;20195;-79
2022/12/31 00:33:40;;;;;;;1.70;0.30;;;12.80;99.90;;;;;;5039445;28;20232;-79
2022/12/31 00:36:27;;;;;;;0.70;0.20;;;12.80;99.90;;;;;;5058100;28;20168;-79
2022/12/31 00:38:55;;;;;;;0.30;0.30;;;12.80;99.90;;;;;;5039697;28;20195;-79
2022/12/31 00:41:21;;;;;;;1.10;0.47;;;12.70;99.90;;;;;;5039621;28;20187;-79
2022/12/31 00:43:48;;;;;;;0.70;0.50;;;12.70;99.90;;;;;;5039778;28;20180;-79
2022/12/31 00:46:15;;;;;;;0.40;0.40;;;12.70;99.90;;;;;;5039731;28;20197;-79
2022/12/31 00:48:41;;;;;;;1.10;0.47;;;12.70;99.90;;;;;;5057632;28;20254;-79
2022/12/31 00:51:09;;;;;;;1.20;0.60;;;12.70;99.90;;;;;;5057268;28;20196;-79
2022/12/31 00:53:34;;;;;;;0.50;0.50;;;12.60;99.90;;;;;;5039557;28;20171;-79
2022/12/31 00:56:02;;;;;;;2.27;0.63;;;12.60;99.90;;;;;;5040045;28;20552;-79
2022/12/31 00:58:28;;;;;;;0.80;0.50;;;12.60;99.90;;;;;;5056926;28;20199;-81
2022/12/31 01:00:53;;;;;;;1.23;0.50;;;12.60;99.90;;;;;;5056898;28;20187;-79
2022/12/31 01:03:19;;;;;;;1.60;0.50;;;12.60;99.90;;;;;;5039365;28;20175;-79
2022/12/31 01:05:44;;;;;;;0.40;0.40;;;12.60;99.90;;;;;;5057298;28;20175;-79
2022/12/31 01:08:10;;;;;;;1.13;0.50;;;12.60;99.90;;;;;;5057126;28;20188;-79
2022/12/31 01:13:20;;;;;;;0.73;0.50;;;12.60;99.90;;;;;;5057920;28;20170;-79
2022/12/31 01:15:45;;;;;;;0.50;0.50;;;12.60;99.90;;;;;;5056859;28;20703;-79
2022/12/31 01:18:11;;;;;;;0.40;0.40;;;12.60;99.90;;;;;;5039161;28;20266;-79
2022/12/31 01:20:38;;;;;;;0.57;0.57;;;12.60;99.90;;;;;;5057999;28;20282;-79
2022/12/31 01:23:04;;;;;;;1.63;1.00;;;12.60;99.90;;;;;;5057513;28;20179;-79
2022/12/31 01:25:29;;;;;;;1.43;0.57;;;12.70;99.90;;;;;;5038683;28;20176;-79
2022/12/31 01:27:55;;;;;;;1.77;0.60;;;12.80;99.90;;;;;;5057160;28;20318;-79
2022/12/31 01:30:20;;;;;;;1.37;0.70;;;12.80;99.90;;;;;;5062480;28;20211;-79
2022/12/31 01:32:46;;;;;;;0.97;0.50;;;12.80;99.90;;;;;;5061352;28;20213;-79
2022/12/31 01:35:11;;;;;;;0.40;0.40;;;12.80;99.90;;;;;;5056663;28;20171;-78
2022/12/31 01:37:37;;;;;;;0.60;0.50;;;12.80;99.90;;;;;;5056514;28;20637;-79
2022/12/31 01:40:04;;;;;;;1.93;0.70;;;12.80;99.90;;;;;;5056677;28;20668;-79
2022/12/31 01:42:29;;;;;;;4.30;0.70;;;12.80;99.90;;;;;;5038840;28;20175;-79
2022/12/31 01:44:55;;;;;;;1.73;0.90;;;12.80;99.90;;;;;;5040115;28;20266;-79
2022/12/31 01:47:36;;;;;;;1.23;0.77;;;12.80;99.90;;;;;;5061214;28;20175;-79
2022/12/31 01:50:22;;;;;;;0.70;0.70;;;12.80;99.90;;;;;;5063244;28;20209;-79
2022/12/31 01:52:51;;;;;;;1.70;0.87;;;12.80;99.90;;;;;;5060397;28;20167;-79
2022/12/31 01:55:38;;;;;;;2.57;0.90;;;12.80;99.90;;;;;;5059901;28;20262;-79
2022/12/31 01:58:09;;;;;;;0.83;0.67;;;12.70;99.90;;;;;;5059322;28;20214;-79
2022/12/31 02:00:35;;;;;;;1.07;0.80;;;12.70;99.90;;;;;;5059617;28;20207;-79
2022/12/31 02:03:01;;;;;;;0.97;0.60;;;12.70;99.90;;;;;;5045235;28;20190;-79
2022/12/31 02:05:53;;;;;;;0.80;0.60;;;12.80;99.90;;;;;;5063680;28;20176;-79
2022/12/31 02:08:20;;;;;;;0.70;0.57;;;12.80;99.90;;;;;;5060980;28;20579;-79
2022/12/31 02:10:45;;;;;;;0.63;0.40;;;12.90;99.90;;;;;;5041965;28;20799;-79
2022/12/31 02:13:13;;;;;;;0.40;0.30;;;12.90;99.90;;;;;;5059963;28;20171;-79
2022/12/31 02:15:53;;;;;;;0.20;0.20;;;13.10;99.90;;;;;;5042040;28;20182;-79
2022/12/31 02:18:23;;;;;;;0.93;0.20;;;13.30;99.90;;;;;;5042724;28;20182;-79
2022/12/31 02:21:18;;;;;;;0.73;0.20;;;13.50;99.90;;;;;;5059780;28;20187;-79
2022/12/31 02:24:17;;;;;;;4.37;0.30;;;13.70;99.90;;;;;;5059351;28;20167;-79
2022/12/31 02:26:57;;;;;;;0.30;0.30;;;13.80;99.90;;;;;;5060060;28;20203;-79
2022/12/31 02:29:35;;;;;;;0.20;0.20;;;13.90;99.90;;;;;;5060375;28;20194;-78
2022/12/31 02:32:30;;;;;;;0.50;0.20;;;14.00;99.90;;;;;;5060010;28;20183;-79
2022/12/31 02:35:01;;;;;;;0.10;0.10;;;14.00;99.90;;;;;;5038487;28;20192;-79
2022/12/31 02:37:29;;;;;;;0.20;0.20;;;14.20;99.90;;;;;;5060203;28;20176;-79
2022/12/31 02:39:55;;;;;;;0.10;0.10;;;14.20;99.90;;;;;;5059204;28;20267;-79
2022/12/31 02:42:20;;;;;;;0.93;0.27;;;14.30;99.90;;;;;;5042087;28;20176;-79
2022/12/31 02:44:46;;;;;;;0.30;0.30;;;14.40;99.90;;;;;;5061217;28;20181;-79
2022/12/31 02:47:33;;;;;;;0.40;0.20;;;14.40;99.90;;;;;;5044349;28;20525;-80
2022/12/31 02:50:21;;;;;;;0.20;0.20;;;14.40;99.90;;;;;;5044116;28;20229;-79
2022/12/31 02:53:25;;;;;;;0.73;0.27;;;14.50;99.90;;;;;;5044029;28;20267;-80
2022/12/31 02:56:18;;;;;;;0.23;0.23;;;14.60;99.90;;;;;;5036250;28;20194;-80
2022/12/31 03:02:14;;;;;;;0.20;0.10;;;14.70;99.90;;;;;;5060812;28;20174;-80
2022/12/31 03:04:50;;;;;;;0.17;0.17;;;14.60;99.90;;;;;;5044284;28;20312;-80
2022/12/31 03:07:21;;;;;;;0.43;0.13;;;14.60;99.90;;;;;;5061482;28;20167;-79
2022/12/31 03:09:47;;;;;;;0.20;0.20;;;14.60;99.90;;;;;;5042799;28;20214;-79
2022/12/31 03:14:58;;;;;;;0.20;0.20;;;14.90;99.90;;;;;;5061465;28;20167;-79
2022/12/31 03:17:24;;;;;;;0.30;0.20;;;14.80;99.90;;;;;;5059866;28;20179;-79
2022/12/31 03:22:37;;;;;;;0.57;0.27;;;14.90;99.90;;;;;;5061004;28;20186;-80
2022/12/31 03:27:54;;;;;;;1.07;0.20;;;14.80;99.90;;;;;;5062166;28;20182;-79
2022/12/31 03:30:21;;;;;;;0.37;0.30;;;14.90;99.90;;;;;;5060806;28;20744;-79
2022/12/31 03:32:47;;;;;;;0.17;0.17;;;14.90;99.90;;;;;;5043140;28;20191;-80
2022/12/31 03:35:15;;;;;;;1.40;0.30;;;15.00;99.90;;;;;;5060266;28;20179;-79
2022/12/31 03:37:40;;;;;;;1.53;0.37;;;15.10;99.90;;;;;;5043609;28;20180;-80
2022/12/31 03:40:09;;;;;;;1.27;0.30;;;15.10;99.90;;;;;;5041958;28;20199;-79
2022/12/31 03:42:34;;;;;;;1.30;0.30;;;15.20;99.90;;;;;;5042492;28;20186;-79
2022/12/31 03:45:00;;;;;;;0.83;0.20;;;15.20;99.90;;;;;;5060768;28;20176;-79
2022/12/31 03:47:25;;;;;;;0.13;0.13;;;15.20;99.90;;;;;;5061513;28;20172;-80
2022/12/31 03:49:51;;;;;;;0.30;0.20;;;15.20;99.90;;;;;;5042612;28;20299;-80
2022/12/31 03:52:16;;;;;;;0.23;0.20;;;15.10;99.90;;;;;;5060606;28;20617;-80
2022/12/31 03:54:42;;;;;;;0.47;0.30;;;15.20;99.90;;;;;;5043198;28;20645;-79
2022/12/31 03:57:08;;;;;;;0.20;0.20;;;15.20;99.90;;;;;;5061793;28;20199;-79
2022/12/31 03:59:33;;;;;;;1.27;0.30;;;15.20;99.90;;;;;;5060934;28;20199;-80
2022/12/31 04:01:59;;;;;;;0.57;0.40;;;15.10;99.90;;;;;;5061387;28;20704;-79
2022/12/31 04:04:25;;;;;;;0.27;0.20;;;15.20;99.90;;;;;;5043706;28;20637;-79
2022/12/31 04:06:50;;;;;;;2.13;0.50;;;15.20;99.90;;;;;;5043727;28;20206;-78
2022/12/31 04:09:16;;;;;;;0.20;0.20;;;15.30;99.90;;;;;;5060527;28;20676;-80
2022/12/31 04:11:41;;;;;;;1.33;0.30;;;15.30;99.90;;;;;;5042997;28;20637;-79
2022/12/31 04:14:07;;;;;;;1.43;0.30;;;15.30;99.90;;;;;;5060986;28;20175;-80
2022/12/31 04:16:32;;;;;;;0.40;0.30;;;15.20;99.90;;;;;;5061488;28;20172;-80
2022/12/31 04:18:58;;;;;;;1.40;0.27;;;15.10;99.90;;;;;;5061242;28;20198;-78
2022/12/31 04:21:24;;;;;;;2.97;0.40;;;15.10;99.90;;;;;;5061457;28;20673;-79
2022/12/31 04:23:49;;;;;;;0.20;0.20;;;15.00;99.90;;;;;;5044425;28;20179;-80
2022/12/31 04:26:15;;;;;;;0.83;0.20;;;15.00;99.90;;;;;;5062280;28;20554;-80
2022/12/31 04:28:40;;;;;;;0.93;0.73;;;14.90;99.90;;;;;;5063092;28;20176;-80
2022/12/31 04:31:06;;;;;;;1.00;0.43;;;14.90;99.90;;;;;;5062577;28;20249;-80
2022/12/31 04:33:32;;;;;;;0.77;0.20;;;14.80;99.90;;;;;;5044259;28;20206;-80
2022/12/31 04:36:02;;;;;;;0.33;0.30;;;14.80;99.90;;;;;;5044430;28;20180;-80
2022/12/31 04:38:30;;;;;;;0.70;0.20;;;14.80;99.90;;;;;;5043190;28;20184;-81
2022/12/31 04:43:40;;;;;;;1.33;0.27;;;14.90;99.90;;;;;;5060711;28;20202;-80
2022/12/31 04:46:06;;;;;;;0.40;0.40;;;14.90;99.90;;;;;;5060445;28;20179;-80
2022/12/31 04:48:32;;;;;;;0.20;0.20;;;15.00;99.90;;;;;;5060841;28;20175;-81
2022/12/31 04:50:58;;;;;;;0.87;0.30;;;15.00;99.90;;;;;;5060918;28;20569;-80
2022/12/31 04:53:24;;;;;;;0.73;0.23;;;15.00;99.90;;;;;;5042560;28;20180;-79
2022/12/31 04:55:49;;;;;;;0.97;0.30;;;15.00;99.90;;;;;;5060664;28;20167;-80
2022/12/31 04:58:15;;;;;;;0.30;0.20;;;15.00;99.90;;;;;;5060989;28;20199;-80
2022/12/31 05:00:41;;;;;;;0.30;0.30;;;15.10;99.90;;;;;;5043005;28;20199;-80
2022/12/31 05:03:06;;;;;;;0.30;0.20;;;15.10;99.90;;;;;;5061359;28;20679;-80
2022/12/31 05:05:32;;;;;;;0.57;0.37;;;15.10;99.90;;;;;;5042866;28;20182;-79
2022/12/31 05:07:57;;;;;;;0.83;0.47;;;15.10;99.90;;;;;;5042859;28;20176;-80
2022/12/31 05:10:23;;;;;;;3.77;0.40;;;15.20;99.90;;;;;;5059260;28;20271;-80
2022/12/31 05:12:49;;;;;;;0.57;0.30;;;15.20;99.90;;;;;;5040584;28;20168;-80
2022/12/31 05:15:14;;;;;;;1.33;0.50;;;15.30;99.90;;;;;;5040975;28;20176;-80
2022/12/31 05:17:40;;;;;;;3.50;0.73;;;15.30;99.90;;;;;;5058639;28;20536;-81
2022/12/31 05:20:05;;;;;;;1.93;0.40;;;15.50;99.90;;;;;;5041271;28;20683;-79
2022/12/31 05:22:31;;;;;;;1.73;0.53;;;15.50;99.90;;;;;;5059460;28;20180;-81
2022/12/31 05:24:58;;;;;;;0.90;0.40;;;15.40;99.90;;;;;;5059433;28;20172;-80
2022/12/31 05:27:25;;;;;;;0.60;0.37;;;15.50;99.90;;;;;;5058777;28;20718;-81
2022/12/31 05:29:50;;;;;;;1.13;0.40;;;15.60;99.90;;;;;;5058806;28;20187;-80
2022/12/31 05:32:16;;;;;;;1.80;0.30;;;15.60;99.90;;;;;;5041064;28;20232;-79
2022/12/31 05:34:41;;;;;;;1.13;0.30;;;15.50;99.90;;;;;;5058513;28;20168;-79
2022/12/31 05:37:07;;;;;;;1.57;0.57;;;15.60;99.90;;;;;;5040096;28;20175;-80
2022/12/31 05:39:32;;;;;;;1.00;0.50;;;15.70;99.90;;;;;;5041538;28;20187;-80
2022/12/31 05:41:58;;;;;;;0.40;0.30;;;15.70;99.90;;;;;;5041260;28;20171;-79
2022/12/31 05:44:23;;;;;;;0.57;0.30;;;15.70;99.90;;;;;;5041578;28;20176;-80
2022/12/31 05:46:49;;;;;;;1.43;0.40;;;15.60;99.90;;;;;;5058065;28;20180;-80
2022/12/31 05:49:14;;;;;;;3.77;0.70;;;15.80;99.90;;;;;;5059570;28;20249;-79
2022/12/31 05:51:40;;;;;;;0.33;0.30;;;15.80;99.90;;;;;;5039820;28;20251;-80
2022/12/31 05:54:06;;;;;;;0.40;0.40;;;15.80;99.90;;;;;;5039424;28;20266;-80
2022/12/31 05:56:31;;;;;;;0.87;0.43;;;16.00;99.90;;;;;;5039778;28;20167;-80
2022/12/31 05:58:57;;;;;;;1.97;0.57;;;16.00;99.90;;;;;;5038841;28;20215;-80
2022/12/31 06:01:22;;;;;;;4.23;0.43;;;16.10;99.90;;;;;;5058223;28;20182;-80
2022/12/31 06:03:48;;;;;;;0.80;0.40;;;16.00;99.90;;;;;;5058219;28;20183;-79
2022/12/31 06:06:13;;;;;;;0.63;0.30;;;15.90;99.90;;;;;;5059250;28;20191;-80
2022/12/31 06:08:39;;;;;;;1.20;0.50;;;16.00;99.90;;;;;;5057544;28;20206;-80
2022/12/31 06:11:04;;;;;;;1.63;0.33;;;16.00;99.90;;;;;;5058065;28;20287;-80
2022/12/31 06:13:30;;;;;;;1.00;0.43;;;16.10;99.90;;;;;;5039865;28;20249;-80
2022/12/31 06:15:56;;;;;;;1.33;0.50;;;16.10;99.90;;;;;;5057784;28;20175;-80
2022/12/31 06:18:21;;;;;;;1.70;0.40;;;16.20;99.90;;;;;;5040546;28;20171;-80
2022/12/31 06:20:47;;;;;;;0.43;0.37;;;16.10;99.90;;;;;;5041489;28;20290;-80
2022/12/31 06:23:12;;;;;;;0.90;0.43;;;16.10;99.90;;;;;;5043547;28;20179;-80
2022/12/31 06:25:38;;;;;;;0.83;0.40;;;16.10;99.90;;;;;;5058767;28;20234;-80
2022/12/31 06:28:04;;;;;;;3.70;0.50;;;16.10;99.90;;;;;;5056758;28;20235;-80
2022/12/31 06:30:30;;;;;;;3.40;0.63;;;16.20;99.90;;;;;;5057414;28;20199;-80
2022/12/31 06:32:56;;;;;;;1.27;0.50;;;16.20;99.90;;;;;;5060752;28;20664;-78
2022/12/31 06:35:21;;;;;;;1.70;0.60;;;16.10;99.90;;;;;;5060318;28;20183;-80
2022/12/31 06:37:47;;;;;;;1.00;0.40;;;16.10;99.90;;;;;;5061361;28;20179;-79
2022/12/31 06:40:13;;;;;;;1.40;0.73;;;16.10;99.90;;;;;;5061311;28;20200;-79
2022/12/31 06:42:39;;;;;;;1.07;0.50;;;16.20;99.90;;;;;;5060469;28;20183;-80
2022/12/31 06:45:05;;;;;;;0.97;0.50;;;16.10;99.90;;;;;;5060471;28;20245;-79
2022/12/31 06:47:30;;;;;;;0.90;0.30;;;16.10;99.90;;;;;;5057969;28;20259;-79
2022/12/31 06:49:56;;;;;;;2.63;0.50;;;16.10;99.90;;;;;;5057478;28;20286;-78
2022/12/31 06:52:21;;;;;;;0.43;0.40;;;16.10;99.90;;;;;;5057312;28;20629;-80
2022/12/31 06:54:47;;;;;;;4.20;0.60;;;16.10;99.90;;;;;;5057101;28;20579;-78
2022/12/31 06:57:13;;;;;;;1.40;0.50;;;16.20;99.90;;;;;;5057293;28;20244;-80
2022/12/31 06:59:39;;;;;;;0.33;0.33;;;16.20;99.90;;;;;;5058954;28;20267;-80
2022/12/31 07:02:35;;;;;;;2.33;0.60;;;16.20;99.90;;;;;;5062851;28;20171;-80
2022/12/31 07:05:01;;;;;;;4.03;1.20;;;16.20;99.90;;;;;;5066200;28;20187;-81
2022/12/31 07:07:54;;;;;;;0.63;0.50;;;16.10;99.90;;;;;;5066253;28;20180;-80
2022/12/31 07:10:39;;;;;;;2.20;0.70;;;16.00;99.90;;;;;;5042097;28;20625;-81
2022/12/31 07:13:41;;;;;;;2.10;0.77;;;16.00;99.90;;;;;;5041343;28;20566;-80
2022/12/31 07:16:35;;;;;;;1.87;0.40;;;16.10;99.90;;;;;;5041456;28;20175;-80
2022/12/31 07:19:41;;;;;;;2.13;0.80;;;16.10;99.90;;;;;;5065387;28;20210;-81
2022/12/31 07:22:14;;;;;;;1.27;0.67;;;16.00;99.90;;;;;;5065269;28;20175;-80
2022/12/31 07:24:40;;;;;;;1.70;0.70;;;16.00;99.90;;;;;;5064854;28;20170;-80
2022/12/31 07:27:20;;;;;;;2.20;0.60;;;16.00;99.90;;;;;;5045521;28;20180;-81
2022/12/31 07:30:02;;;;;;;2.27;0.60;;;16.00;99.90;;;;;;5065017;28;20202;-81
2022/12/31 07:32:56;;;;;;;2.13;0.77;;;15.90;99.90;;;;;;5047522;28;20180;-81
2022/12/31 07:35:40;;;;;;;3.60;0.40;;;15.90;99.90;;;;;;5046282;28;20215;-80
2022/12/31 07:38:32;;;;;;;0.93;0.60;;;15.90;99.90;;;;;;5064503;28;20186;-81
2022/12/31 07:41:18;;;;;;;1.57;0.53;;;15.90;99.90;;;;;;5064645;28;20624;-81
2022/12/31 07:43:57;;;;;;;1.33;0.67;;;15.80;99.90;;;;;;5044236;28;20183;-82
2022/12/31 07:46:40;;;;;;;1.27;0.40;;;15.90;99.90;;;;;;5040430;28;20652;-86
2022/12/31 07:49:10;;;;;;;2.20;0.50;;;15.80;99.90;;;;;;5059457;28;20195;-83
2022/12/31 07:51:36;;;;;;;2.20;0.70;;;15.80;99.90;;;;;;5060546;28;20223;-83
2022/12/31 07:54:02;;;;;;;2.03;0.60;;;15.80;99.90;;;;;;5059163;28;20676;-81
2022/12/31 07:56:28;;;;;;;5.20;0.70;;;15.80;99.90;;;;;;5060097;28;20176;-82
2022/12/31 07:59:26;;;;;;;1.90;0.50;;;15.80;99.90;;;;;;5060655;28;20204;-83
2022/12/31 08:02:01;;;;;;;1.10;0.50;;;15.80;99.90;;;;;;5060422;28;20160;-83
2022/12/31 08:04:47;;;;;;;3.60;0.80;;;15.80;99.90;;;;;;5059564;28;20163;-83
2022/12/31 08:07:29;;;;;;;2.17;0.60;;;15.80;99.90;;;;;;5038659;28;20168;-79
2022/12/31 08:10:12;;;;;;;1.00;0.30;;;15.80;99.90;;;;;;5057173;28;20184;-79
2022/12/31 08:12:39;;;;;;;0.53;0.50;;;15.90;99.90;;;;;;5057580;28;20152;-80
2022/12/31 08:15:16;;;;;;;2.00;0.77;;;15.80;99.90;;;;;;5057812;28;20172;-79
2022/12/31 08:17:42;;;;;;;1.80;0.70;;;15.90;99.90;;;;;;5040153;28;20167;-82
2022/12/31 08:20:15;;;;;;;1.13;0.70;;;16.00;99.90;;;;;;5056602;28;20198;-82
2022/12/31 08:23:18;;;;;;;2.83;0.60;;;16.10;99.90;;;;;;5041343;28;20207;-82
2022/12/31 08:25:57;;;;;;;4.10;1.20;;;16.00;99.90;;;;;;5059669;28;20186;-81
2022/12/31 08:28:29;;;;;;;3.23;0.60;;;16.00;99.90;;;;;;5058524;28;20167;-83
2022/12/31 08:31:43;;;;;;;1.60;0.63;;;16.10;99.90;;;;;;5058507;28;20191;-82
2022/12/31 08:34:21;;;;;;;0.70;0.50;;;16.10;99.90;;;;;;5053903;28;20183;-81
2022/12/31 08:36:55;;;;;;;1.53;0.60;;;16.10;99.90;;;;;;5041362;28;20175;-83
2022/12/31 08:39:48;;;;;;;2.53;0.80;;;16.30;99.90;;;;;;5059961;28;20188;-82
2022/12/31 08:42:26;;;;;;;2.27;0.67;;;16.20;99.90;;;;;;5059760;28;20213;-82
2022/12/31 08:45:08;;;;;;;1.77;0.60;;;16.20;99.90;;;;;;5055203;28;20159;-81
2022/12/31 08:47:55;;;;;;;2.90;0.83;;;16.20;99.90;;;;;;5038105;28;20305;-82
2022/12/31 08:50:21;;;;;;;1.83;0.53;;;16.10;99.90;;;;;;5055959;28;20195;-82
2022/12/31 08:52:47;;;;;;;1.67;0.70;;;16.20;99.90;;;;;;5056463;28;20663;-81
2022/12/31 08:55:16;;;;;;;2.23;0.60;;;16.20;99.90;;;;;;5037122;28;20174;-81
2022/12/31 08:57:55;;;;;;;4.50;0.97;;;16.10;99.90;;;;;;5037400;28;20197;-81
2022/12/31 09:00:22;;;;;;;0.70;0.40;;;16.20;99.90;;;;;;5037856;28;20230;-81
2022/12/31 09:02:51;;;;;;;1.73;0.67;;;16.10;99.90;;;;;;5054843;28;20250;-81
2022/12/31 09:05:51;;;;;;;1.60;0.70;;;16.20;99.90;;;;;;5036605;28;20534;-80
2022/12/31 09:08:26;;;;;;;2.33;0.40;;;16.20;99.90;;;;;;5036849;28;20163;-81
2022/12/31 09:10:54;;;;;;;4.67;0.80;;;16.10;99.90;;;;;;5054700;28;20205;-80
2022/12/31 09:13:45;;;;;;;1.13;0.40;;;16.20;99.90;;;;;;5036927;28;20175;-80
2022/12/31 09:16:35;;;;;;;2.23;0.73;;;16.20;99.90;;;;;;5037082;28;20178;-80
2022/12/31 09:19:00;;;;;;;4.77;1.43;;;16.20;99.90;;;;;;5037254;28;20748;-80
2022/12/31 09:21:26;;;;;;;5.10;0.77;;;16.30;99.90;;;;;;5037037;28;20176;-79
2022/12/31 09:23:52;;;;;;;3.13;0.90;;;16.20;99.90;;;;;;5054362;28;20171;-81
2022/12/31 09:26:55;;;;;;;1.83;0.90;;;16.30;99.90;;;;;;5036469;28;20186;-81
2022/12/31 09:29:52;;;;;;;1.83;0.80;;;16.30;99.90;;;;;;5036975;28;20199;-81
2022/12/31 09:32:57;;;;;;;1.13;0.70;;;16.40;99.90;;;;;;5054944;28;20164;-81
2022/12/31 09:35:48;;;;;;;2.43;0.80;;;16.40;99.90;;;;;;5037015;28;20569;-82
2022/12/31 09:38:39;;;;;;;2.20;0.70;;;16.40;99.90;;;;;;5055378;28;20158;-82
2022/12/31 09:41:21;;;;;;;3.33;0.70;;;16.40;99.90;;;;;;5038054;28;20175;-82
2022/12/31 09:43:59;;;;;;;4.77;0.80;;;16.50;99.90;;;;;;5054489;28;20171;-82
2022/12/31 09:46:48;;;;;;;1.80;0.50;;;16.60;99.90;;;;;;5054218;28;20537;-80
2022/12/31 09:49:31;;;;;;;2.80;1.20;;;16.60;99.90;;;;;;5054084;28;20209;-82
2022/12/31 09:52:14;;;;;;;3.47;0.80;;;16.60;99.90;;;;;;5036596;28;20680;-80
2022/12/31 09:55:18;;;;;;;2.63;0.80;;;16.60;99.90;;;;;;5037745;28;20172;-79
2022/12/31 09:57:57;;;;;;;1.20;0.63;;;16.60;99.90;;;;;;5054271;28;20236;-79
2022/12/31 10:00:49;;;;;;;1.80;0.83;;;16.50;99.90;;;;;;5054244;28;20199;-80
2022/12/31 10:03:50;;;;;;;1.70;0.70;;;16.60;99.90;;;;;;5054885;28;20163;-80
2022/12/31 10:06:27;;;;;;;3.63;0.70;;;16.60;99.90;;;;;;5055666;28;20171;-80
2022/12/31 10:09:12;;;;;;;3.93;1.10;;;16.70;99.90;;;;;;5040188;28;20191;-80
2022/12/31 10:12:03;;;;;;;3.13;0.70;;;16.60;99.90;;;;;;5058531;28;20543;-80
2022/12/31 10:15:01;;;;;;;2.90;0.93;;;16.50;99.90;;;;;;5040225;28;20238;-79
2022/12/31 10:17:48;;;;;;;3.03;0.90;;;16.60;99.90;;;;;;5040245;28;20652;-80
2022/12/31 10:20:31;;;;;;;2.27;0.70;;;16.70;99.90;;;;;;5058537;28;20230;-80
2022/12/31 10:23:24;;;;;;;2.53;0.70;;;16.60;99.90;;;;;;5058633;28;20162;-79
2022/12/31 10:26:16;;;;;;;3.47;0.90;;;16.60;99.90;;;;;;5059600;28;20247;-80
2022/12/31 10:29:05;;;;;;;1.03;0.63;;;16.60;99.90;;;;;;5030911;28;20188;-80
2022/12/31 10:31:38;;;;;;;1.83;0.70;;;16.60;99.90;;;;;;5058993;28;20194;-79
2022/12/31 10:34:20;;;;;;;2.57;0.90;;;16.60;99.90;;;;;;5041447;28;20210;-80
2022/12/31 10:37:14;;;;;;;1.73;0.70;;;16.70;99.90;;;;;;5040992;28;20160;-79
2022/12/31 10:40:08;;;;;;;4.40;1.00;;;16.70;99.90;;;;;;5059183;28;20187;-78
2022/12/31 10:43:03;;;;;;;2.30;0.70;;;16.70;99.90;;;;;;5040843;28;20179;-80
2022/12/31 10:46:06;;;;;;;1.90;0.67;;;16.70;99.90;;;;;;5041441;28;20164;-83
2022/12/31 10:48:52;;;;;;;5.57;0.83;;;16.70;99.90;;;;;;5042817;28;20191;-83
2022/12/31 10:51:47;;;;;;;4.70;0.70;;;16.80;99.90;;;;;;5066289;28;20199;-80
2022/12/31 10:54:32;;;;;;;2.97;1.50;;;16.90;99.90;;;;;;5000943;28;20253;-80
2022/12/31 10:57:31;;;;;;;2.33;0.70;;;16.80;99.90;;;;;;5073151;28;20198;-80
2022/12/31 11:00:10;;;;;;;4.63;0.83;;;16.80;99.90;;;;;;5056531;28;20638;-80
2022/12/31 11:02:53;;;;;;;6.73;1.07;;;16.80;99.90;;;;;;5056890;28;20175;-80
2022/12/31 11:05:43;;;;;;;1.97;0.80;;;16.80;99.90;;;;;;5073528;28;20191;-80
2022/12/31 11:08:47;;;;;;;2.60;1.00;;;16.90;99.90;;;;;;5057190;28;20157;-82
2022/12/31 11:11:35;;;;;;;2.40;0.80;;;16.80;99.90;;;;;;5059281;28;20190;-81
2022/12/31 11:14:28;;;;;;;3.40;0.93;;;16.90;99.90;;;;;;5078318;28;20159;-79
2022/12/31 11:17:29;;;;;;;5.00;1.50;;;16.90;99.90;;;;;;5073623;28;20171;-79
2022/12/31 11:20:26;;;;;;;1.33;0.80;;;16.90;99.90;;;;;;5048031;28;20249;-79
2022/12/31 11:23:00;;;;;;;4.47;0.80;;;16.90;99.90;;;;;;5069985;28;20176;-80
2022/12/31 11:25:52;;;;;;;5.63;0.97;;;16.90;99.90;;;;;;5049427;28;20159;-79
2022/12/31 11:28:41;;;;;;;3.23;0.97;;;16.80;99.90;;;;;;5048344;28;20194;-80
2022/12/31 11:31:37;;;;;;;1.90;1.03;;;16.80;99.90;;;;;;5065341;28;20550;-80
2022/12/31 11:34:18;;;;;;;3.77;1.10;;;16.70;99.90;;;;;;5065176;28;20219;-80
2022/12/31 11:37:12;;;;;;;2.00;0.80;;;16.80;99.90;;;;;;5045514;28;20171;-79
2022/12/31 11:39:55;;;;;;;1.63;0.70;;;16.80;99.90;;;;;;5045848;28;20194;-79
2022/12/31 11:42:54;;;;;;;4.90;1.10;;;16.80;99.90;;;;;;5046931;28;20168;-80
2022/12/31 11:45:41;;;;;;;3.17;1.00;;;16.70;99.90;;;;;;5064388;28;20156;-80
2022/12/31 11:48:28;;;;;;;2.70;1.23;;;16.70;99.90;;;;;;5049048;28;20193;-80
2022/12/31 11:51:14;;;;;;;5.10;0.80;;;16.60;99.90;;;;;;5049960;28;20199;-80
2022/12/31 11:53:46;;;;;;;1.00;0.53;;;16.70;99.90;;;;;;5047238;28;20159;-81
2022/12/31 11:56:27;;;;;;;4.20;0.80;;;16.80;99.90;;;;;;5062420;28;20229;-82
2022/12/31 11:58:54;;;;;;;4.23;1.00;;;16.80;99.90;;;;;;5047273;28;20215;-82
2022/12/31 12:01:30;;;;;;;6.30;1.57;;;16.70;99.90;;;;;;5049841;28;20184;-83
2022/12/31 12:03:56;;;;;;;3.03;0.93;;;16.80;99.90;;;;;;5066336;28;20160;-82
2022/12/31 12:06:28;;;;;;;2.80;0.70;;;16.80;99.90;;;;;;5063388;28;20203;-83
2022/12/31 12:09:06;;;;;;;5.47;1.17;;;16.90;99.90;;;;;;5062826;28;20199;-82
2022/12/31 12:11:36;;;;;;;5.07;1.07;;;16.90;99.90;;;;;;5045077;28;20225;-84
2022/12/31 12:14:31;;;;;;;2.90;0.90;;;16.80;99.90;;;;;;5047552;28;20198;-82
2022/12/31 12:16:58;;;;;;;2.60;0.97;;;16.90;99.90;;;;;;5066220;28;20210;-81
2022/12/31 12:19:26;;;;;;;2.40;0.77;;;16.90;99.90;;;;;;5065091;28;20230;-81
2022/12/31 12:21:52;;;;;;;1.90;0.97;;;17.10;99.90;;;;;;5064035;28;20186;-81
2022/12/31 12:24:21;;;;;;;4.67;1.10;;;16.80;99.90;;;;;;5065185;28;20227;-81
2022/12/31 12:26:48;;;;;;;3.67;0.87;;;16.70;99.90;;;;;;5063355;28;20176;-81
2022/12/31 12:29:13;;;;;;;3.13;1.00;;;16.60;99.90;;;;;;5064863;28;20194;-82
2022/12/31 12:31:39;;;;;;;5.77;0.90;;;16.60;99.90;;;;;;5047740;28;20302;-85
2022/12/31 12:34:19;;;;;;;3.43;1.03;;;16.60;99.90;;;;;;5043055;28;20176;-81
2022/12/31 12:36:46;;;;;;;3.50;1.10;;;16.60;99.90;;;;;;5066911;28;20187;-80
2022/12/31 12:39:24;;;;;;;4.37;1.03;;;16.60;99.90;;;;;;5066627;28;20211;-81
2022/12/31 12:42:19;;;;;;;3.20;1.60;;;16.60;99.90;;;;;;5066282;28;20216;-80
2022/12/31 12:44:44;;;;;;;1.57;0.70;;;16.60;99.90;;;;;;5030578;28;20668;-81
2022/12/31 12:47:17;;;;;;;1.90;0.77;;;16.60;99.90;;;;;;5039814;28;20179;-81
2022/12/31 12:49:48;;;;;;;3.20;0.90;;;16.70;99.90;;;;;;5056625;28;20192;-81
2022/12/31 12:52:50;;;;;;;2.93;1.53;;;16.70;99.90;;;;;;5038063;28;20210;-81
2022/12/31 12:55:43;;;;;;;5.00;0.97;;;16.80;99.90;;;;;;5040737;28;20206;-81
2022/12/31 12:58:15;;;;;;;5.37;0.90;;;16.80;99.90;;;;;;5067140;28;20198;-81
2022/12/31 13:00:52;;;;;;;1.70;0.80;;;16.80;99.90;;;;;;5048390;28;20191;-81
2022/12/31 13:03:37;;;;;;;4.83;0.80;;;16.80;99.90;;;;;;5047491;28;20168;-80
2022/12/31 13:06:39;;;;;;;2.90;0.90;;;16.80;99.90;;;;;;5046466;28;20644;-80
2022/12/31 13:09:19;;;;;;;3.33;1.10;;;16.90;99.90;;;;;;5065387;28;20213;-82
2022/12/31 13:12:06;;;;;;;3.77;0.73;;;16.80;99.90;;;;;;5048724;28;20194;-80
2022/12/31 13:14:56;;;;;;;3.03;0.90;;;16.90;99.90;;;;;;5047882;28;20198;-80
2022/12/31 13:17:59;;;;;;;4.90;1.00;;;16.90;99.90;;;;;;5064125;28;20151;-80
2022/12/31 13:20:46;;;;;;;4.43;1.13;;;16.80;99.90;;;;;;4999611;28;20624;-83
2022/12/31 13:23:21;;;;;;;2.27;0.97;;;16.80;99.90;;;;;;5041074;28;20191;-80
2022/12/31 13:26:13;;;;;;;3.47;1.03;;;16.80;99.90;;;;;;5063850;28;20229;-80
2022/12/31 13:28:41;;;;;;;1.33;0.80;;;16.80;99.90;;;;;;5064023;28;20168;-81
2022/12/31 13:31:12;;;;;;;4.40;1.40;;;16.80;99.90;;;;;;5063168;28;20191;-81
2022/12/31 13:33:42;;;;;;;3.27;1.10;;;16.70;99.90;;;;;;5042456;28;20274;-82
2022/12/31 13:36:14;;;;;;;4.03;1.17;;;16.80;99.90;;;;;;5061263;28;20561;-81
2022/12/31 13:38:45;;;;;;;2.00;0.90;;;16.80;99.90;;;;;;5042879;28;20168;-82
2022/12/31 13:41:27;;;;;;;2.77;0.90;;;16.80;99.90;;;;;;5062773;28;20183;-80
2022/12/31 13:44:10;;;;;;;4.47;1.43;;;16.90;99.90;;;;;;5043850;28;20171;-81
2022/12/31 13:46:51;;;;;;;1.70;1.00;;;16.80;99.90;;;;;;5063718;28;20198;-80